Time;durP1;ratioP1;P1;durP2;ratioP2;P2;SDS_P1;SDS_P2;PMS_P1;PMS_P2;Temp;Humidity;BMP_temperature;BMP_pressure;BME280_temperature;BME280_humidity;BME280_pressure;Samples;Min_cycle;Max_cycle;Signal;HPM_P1;HPM_P2
2023/09/13 00:00:41;;;;;;;14.82;7.00;;;;;;;-143.21;58.28;72064.25;5072065;28;20204;-81
2023/09/13 00:03:07;;;;;;;11.45;5.80;;;;;;;-143.21;57.00;72068.22;5071164;28;20213;-81
2023/09/13 00:05:35;;;;;;;17.55;5.82;;;;;;;-143.21;57.56;72076.16;5071039;28;20249;-81
2023/09/13 00:08:02;;;;;;;14.77;6.55;;;;;;;-143.21;58.10;72070.19;5071034;28;20216;-79
2023/09/13 00:10:29;;;;;;;15.13;5.97;;;;;;;-143.21;57.88;72076.16;5071815;28;20275;-80
2023/09/13 00:12:56;;;;;;;15.80;7.03;;;;;;;-143.21;57.93;72086.06;5070004;28;20691;-80
2023/09/13 00:15:23;;;;;;;13.65;6.28;;;;;;;-143.21;58.37;72084.06;5070289;28;20201;-80
2023/09/13 00:17:50;;;;;;;14.23;6.68;;;;;;;-143.21;58.66;72092.00;5070296;28;20287;-80
2023/09/13 00:20:17;;;;;;;11.07;6.15;;;;;;;-143.21;57.99;72076.16;5070958;28;20201;-82
2023/09/13 00:22:45;;;;;;;8.93;6.47;;;;;;;-143.21;57.85;72080.13;5071144;28;20633;-80
2023/09/13 00:25:12;;;;;;;13.15;6.60;;;;;;;-143.21;57.43;72086.06;5067657;28;20204;-81
2023/09/13 00:27:39;;;;;;;19.95;6.90;;;;;;;-143.21;57.70;72090.03;5071163;28;20201;-81
2023/09/13 00:30:08;;;;;;;11.75;5.50;;;;;;;-143.21;57.50;72097.97;5070903;28;20219;-81
2023/09/13 00:32:35;;;;;;;10.10;5.70;;;;;;;-143.21;57.34;72097.97;5070595;28;20244;-80
2023/09/13 00:35:02;;;;;;;11.07;6.70;;;;;;;-143.21;57.95;72095.97;5071015;28;20215;-81
2023/09/13 00:37:29;;;;;;;15.38;6.68;;;;;;;-143.21;58.03;72099.94;5070451;28;20606;-80
2023/09/13 00:39:57;;;;;;;20.23;6.80;;;;;;;-143.21;58.55;72111.84;5070633;28;20205;-80
2023/09/13 00:42:24;;;;;;;14.80;6.95;;;;;;;-143.21;59.02;72117.78;5070966;28;20205;-80
2023/09/13 00:44:51;;;;;;;9.95;6.07;;;;;;;-143.21;58.59;72119.78;5070435;28;20675;-80
2023/09/13 00:47:17;;;;;;;13.38;6.53;;;;;;;-143.21;58.49;72127.72;5070162;28;20587;-80
2023/09/13 00:49:47;;;;;;;14.05;7.00;;;;;;;-143.21;58.88;72121.75;5070462;28;20209;-80
2023/09/13 00:52:15;;;;;;;13.38;6.70;;;;;;;-143.21;58.79;72125.72;5067019;28;20224;-81
2023/09/13 00:54:41;;;;;;;12.57;6.50;;;;;;;-143.21;58.78;72125.72;5067980;28;20221;-81
2023/09/13 00:57:11;;;;;;;9.95;6.30;;;;;;;-143.21;58.97;72133.66;5070760;28;20209;-81
2023/09/13 00:59:38;;;;;;;13.82;6.38;;;;;;;-143.21;59.10;72133.66;5070255;28;20197;-81
2023/09/13 01:02:05;;;;;;;11.25;6.63;;;;;;;-143.21;59.13;72133.66;5070097;28;21060;-80
2023/09/13 01:04:34;;;;;;;12.15;6.22;;;;;;;-143.21;58.94;72133.66;5070185;28;20216;-81
2023/09/13 01:07:01;;;;;;;13.30;6.65;;;;;;;-143.21;59.18;72137.63;5069899;28;20669;-80
2023/09/13 01:09:29;;;;;;;11.18;6.22;;;;;;;-143.21;59.18;72139.59;5070127;28;20315;-80
2023/09/13 01:11:56;;;;;;;11.13;6.85;;;;;;;-143.21;59.37;72145.56;5070072;28;20209;-80
2023/09/13 01:14:24;;;;;;;8.82;5.60;;;;;;;-143.21;59.38;72155.47;5069805;28;20233;-79
2023/09/13 01:16:59;;;;;;;13.63;5.90;;;;;;;-143.21;59.02;72149.53;5069878;28;20216;-80
2023/09/13 01:19:51;;;;;;;8.38;5.90;;;;;;;-143.21;59.22;72153.47;5070356;28;20204;-80
2023/09/13 01:22:54;;;;;;;10.37;5.73;;;;;;;-143.21;59.55;72153.47;5070620;28;20288;-81
2023/09/13 01:25:42;;;;;;;14.63;6.50;;;;;;;-143.21;59.69;72161.41;5068459;28;20201;-80
2023/09/13 01:28:13;;;;;;;14.90;6.32;;;;;;;-143.21;59.76;72157.44;5068051;28;20208;-81
2023/09/13 01:30:44;;;;;;;17.33;6.50;;;;;;;-143.21;59.76;72169.34;5067198;28;20275;-81
2023/09/13 01:33:11;;;;;;;16.10;6.90;;;;;;;-143.21;59.48;72165.38;5070620;28;20225;-81
2023/09/13 01:35:37;;;;;;;12.20;6.20;;;;;;;-143.21;59.74;72167.38;5069835;28;20208;-79
2023/09/13 01:38:05;;;;;;;15.80;7.10;;;;;;;-143.21;59.86;72175.31;5069637;28;20217;-79
2023/09/13 01:40:36;;;;;;;16.33;6.27;;;;;;;-143.21;59.84;72175.31;5069352;28;20213;-79
2023/09/13 01:43:05;;;;;;;11.97;6.27;;;;;;;-143.21;60.10;72177.28;5068211;28;20228;-79
2023/09/13 01:45:33;;;;;;;15.10;6.57;;;;;;;-143.21;59.99;72177.28;5068269;28;20213;-79
2023/09/13 01:48:03;;;;;;;14.52;5.95;;;;;;;-143.21;59.89;72173.31;5068837;28;20228;-79
2023/09/13 01:50:30;;;;;;;11.53;6.43;;;;;;;-143.21;60.23;72181.25;5069431;28;20205;-79
2023/09/13 01:52:57;;;;;;;12.30;6.68;;;;;;;-143.21;60.39;72183.22;5068886;28;20204;-80
2023/09/13 01:55:25;;;;;;;12.77;6.15;;;;;;;-143.21;60.87;72187.19;5069458;28;20197;-79
2023/09/13 01:57:52;;;;;;;13.30;6.40;;;;;;;-143.21;60.73;72169.34;5069500;28;20284;-79
2023/09/13 02:00:19;;;;;;;13.80;7.10;;;;;;;-143.21;60.68;72175.31;5068820;28;20608;-79
2023/09/13 02:02:46;;;;;;;11.07;6.57;;;;;;;-143.21;60.65;72183.22;5069296;28;20196;-78
2023/09/13 02:05:15;;;;;;;11.13;6.37;;;;;;;-143.21;60.26;72187.19;5069086;28;20313;-79
2023/09/13 02:07:41;;;;;;;12.80;7.33;;;;;;;-143.21;60.23;72187.19;5069456;28;20205;-78
2023/09/13 02:10:08;;;;;;;12.07;6.30;;;;;;;-143.21;60.71;72201.09;5069334;28;20197;-79
2023/09/13 02:12:35;;;;;;;14.13;6.30;;;;;;;-143.21;60.54;72205.03;5072833;28;21021;-78
2023/09/13 02:15:02;;;;;;;12.57;6.03;;;;;;;-143.21;60.90;72207.03;5072528;28;20228;-79
2023/09/13 02:17:31;;;;;;;10.50;6.20;;;;;;;-143.21;60.89;72214.97;5073515;28;20280;-80
2023/09/13 02:19:58;;;;;;;10.50;5.97;;;;;;;-143.21;60.78;72214.97;5072816;28;20205;-79
2023/09/13 02:22:26;;;;;;;15.23;6.20;;;;;;;-143.21;60.63;72220.91;5073532;28;20201;-80
2023/09/13 02:24:53;;;;;;;12.53;6.13;;;;;;;-143.21;61.31;72226.84;5073550;28;20600;-80
2023/09/13 02:27:20;;;;;;;14.33;6.50;;;;;;;-143.21;61.21;72222.91;5073629;28;20201;-81
2023/09/13 02:29:46;;;;;;;10.93;6.43;;;;;;;-143.21;61.85;72236.78;5073256;28;20228;-80
2023/09/13 02:32:13;;;;;;;10.83;6.43;;;;;;;-143.21;61.17;72224.88;5073703;28;20213;-82
2023/09/13 02:34:43;;;;;;;12.67;6.07;;;;;;;-143.21;61.26;72234.78;5073676;28;20251;-81
2023/09/13 02:37:10;;;;;;;12.33;6.57;;;;;;;-143.21;61.18;72240.75;5073525;28;20209;-81
2023/09/13 02:39:41;;;;;;;12.50;6.87;;;;;;;-143.21;61.36;72248.66;5073018;28;20608;-81
2023/09/13 02:42:08;;;;;;;13.77;7.30;;;;;;;-143.21;61.73;72242.72;5073395;28;20691;-81
2023/09/13 02:44:35;;;;;;;12.10;6.83;;;;;;;-143.21;61.83;72238.75;5073143;28;20669;-81
2023/09/13 02:47:03;;;;;;;13.23;6.20;;;;;;;-143.21;61.42;72236.78;5073106;28;20914;-80
2023/09/13 02:49:29;;;;;;;16.87;6.77;;;;;;;-143.21;61.52;72244.72;5073391;28;20190;-81
2023/09/13 02:51:56;;;;;;;15.03;6.63;;;;;;;-143.21;61.98;72260.56;5072863;28;20300;-79
2023/09/13 02:54:23;;;;;;;12.60;5.97;;;;;;;-143.21;62.09;72256.59;5072642;28;20704;-80
2023/09/13 02:56:52;;;;;;;28.20;7.33;;;;;;;-143.21;62.57;72264.53;5072945;28;20687;-80
2023/09/13 02:59:19;;;;;;;17.53;7.97;;;;;;;-143.21;62.51;72260.56;5073096;28;20209;-80
2023/09/13 03:01:49;;;;;;;13.70;8.03;;;;;;;-143.21;62.47;72258.59;5072980;28;20201;-80
2023/09/13 03:04:16;;;;;;;14.57;7.17;;;;;;;-143.21;62.46;72260.56;5069945;28;20299;-79
2023/09/13 03:06:43;;;;;;;19.33;7.30;;;;;;;-143.21;62.17;72260.56;5071118;28;20720;-78
2023/09/13 03:09:10;;;;;;;18.17;6.87;;;;;;;-143.21;62.11;72256.59;5070687;28;20216;-79
2023/09/13 03:11:37;;;;;;;20.10;6.93;;;;;;;-143.21;61.71;72260.56;5070932;28;20917;-79
2023/09/13 03:14:06;;;;;;;11.13;6.33;;;;;;;-143.21;61.81;72272.47;5069929;28;20232;-79
2023/09/13 03:16:33;;;;;;;17.83;6.47;;;;;;;-143.21;61.75;72280.41;5070078;28;20216;-79
2023/09/13 03:19:00;;;;;;;15.23;6.60;;;;;;;-143.21;62.24;72292.31;5069907;28;20560;-79
2023/09/13 03:21:27;;;;;;;17.97;6.80;;;;;;;-143.21;61.15;72298.25;5070506;28;20206;-80
2023/09/13 03:23:54;;;;;;;13.87;6.63;;;;;;;-143.21;61.31;72304.19;5070455;28;20235;-79
2023/09/13 03:26:23;;;;;;;13.63;6.47;;;;;;;-143.21;61.75;72308.16;5070781;28;20208;-79
2023/09/13 03:28:51;;;;;;;15.83;6.90;;;;;;;-143.21;62.02;72316.09;5070633;28;20261;-80
2023/09/13 03:31:20;;;;;;;15.67;6.70;;;;;;;-143.21;62.49;72316.09;5070887;28;20202;-80
2023/09/13 03:33:49;;;;;;;11.40;6.57;;;;;;;-143.21;62.38;72322.06;5070260;28;20638;-80
2023/09/13 03:36:16;;;;;;;13.23;6.10;;;;;;;-143.21;62.55;72320.06;5070499;28;20208;-79
2023/09/13 03:38:44;;;;;;;15.47;6.47;;;;;;;-143.21;62.67;72318.09;5070992;28;20213;-80
2023/09/13 03:41:14;;;;;;;19.37;6.63;;;;;;;-143.21;62.32;72312.13;5070810;28;20679;-79
2023/09/13 03:43:41;;;;;;;14.60;6.50;;;;;;;-143.21;62.48;72312.13;5067806;28;20212;-79
2023/09/13 03:46:09;;;;;;;10.37;6.67;;;;;;;-143.21;62.36;72310.16;5070811;28;20209;-80
2023/09/13 03:48:38;;;;;;;14.63;6.70;;;;;;;-143.21;62.56;72322.06;5070883;28;20641;-79
2023/09/13 03:51:07;;;;;;;15.03;6.67;;;;;;;-143.21;62.96;72322.06;5070011;28;20197;-79
2023/09/13 03:53:34;;;;;;;16.07;6.63;;;;;;;-143.21;63.13;72328.00;5070431;28;20244;-79
2023/09/13 03:56:01;;;;;;;14.47;6.80;;;;;;;-143.21;63.02;72324.03;5070240;28;20201;-79
2023/09/13 03:58:28;;;;;;;13.57;6.33;;;;;;;-143.21;62.86;72318.09;5070207;28;20593;-80
2023/09/13 04:00:56;;;;;;;19.87;6.53;;;;;;;-143.21;61.96;72324.03;5069969;28;20197;-80
2023/09/13 04:03:24;;;;;;;16.30;6.60;;;;;;;-143.21;62.17;72324.03;5069875;28;20205;-80
2023/09/13 04:05:52;;;;;;;14.40;6.00;;;;;;;-143.21;62.48;72322.06;5030053;28;1146403;-80
2023/09/13 04:08:19;;;;;;;15.10;6.70;;;;;;;-143.21;62.43;72320.06;5070628;28;20583;-79
2023/09/13 04:10:46;;;;;;;15.93;7.00;;;;;;;-143.21;62.80;72316.09;5071149;28;20224;-79
2023/09/13 04:13:13;;;;;;;15.33;6.63;;;;;;;-143.21;62.60;72324.03;5068307;28;20588;-80
2023/09/13 04:15:39;;;;;;;22.13;6.57;;;;;;;-143.21;62.80;72322.06;5066191;28;20229;-81
2023/09/13 04:18:08;;;;;;;23.10;7.70;;;;;;;-143.21;62.83;72320.06;5070525;28;20205;-80
2023/09/13 04:20:34;;;;;;;19.57;7.23;;;;;;;-143.21;62.37;72318.09;5070950;28;20213;-79
2023/09/13 04:23:05;;;;;;;22.27;7.10;;;;;;;-143.21;62.53;72324.03;5070078;28;20209;-79
2023/09/13 04:25:32;;;;;;;17.40;7.97;;;;;;;-143.21;63.07;72324.03;5070939;28;20850;-80
2023/09/13 04:27:59;;;;;;;18.17;7.10;;;;;;;-143.21;62.81;72337.91;5070520;28;20568;-79
2023/09/13 04:30:26;;;;;;;18.33;7.27;;;;;;;-143.21;62.45;72331.97;5070405;28;20289;-81
2023/09/13 04:32:52;;;;;;;15.67;7.40;;;;;;;-143.21;63.22;72337.91;5070304;28;20591;-79
2023/09/13 04:35:19;;;;;;;21.17;7.27;;;;;;;-143.21;63.19;72333.94;5070184;28;20604;-79
2023/09/13 04:37:46;;;;;;;25.27;7.67;;;;;;;-143.21;63.07;72328.00;5070638;28;20201;-80
2023/09/13 04:40:14;;;;;;;20.97;7.30;;;;;;;-143.21;63.00;72324.03;5067310;28;20205;-80
2023/09/13 04:42:43;;;;;;;13.47;6.77;;;;;;;-143.21;62.54;72328.00;5070293;28;20205;-80
2023/09/13 04:45:11;;;;;;;13.50;6.80;;;;;;;-143.21;62.80;72329.97;5069205;28;20216;-80
2023/09/13 04:47:38;;;;;;;19.10;7.03;;;;;;;-143.21;62.61;72329.97;5070281;28;20205;-79
2023/09/13 04:50:07;;;;;;;17.30;7.63;;;;;;;-143.21;62.81;72324.03;5069762;28;20210;-80
2023/09/13 04:52:34;;;;;;;28.07;8.50;;;;;;;-143.21;62.50;72312.13;5069714;28;20217;-80
2023/09/13 04:55:01;;;;;;;33.73;8.53;;;;;;;-143.21;62.28;72316.09;5069876;28;20229;-80
2023/09/13 04:57:29;;;;;;;23.53;8.57;;;;;;;-143.21;62.44;72306.19;5070245;28;20588;-80
2023/09/13 04:59:56;;;;;;;28.63;7.80;;;;;;;-143.21;62.87;72300.25;5070067;28;20610;-80
2023/09/13 05:02:22;;;;;;;17.43;8.13;;;;;;;-143.21;62.26;72278.41;5069602;28;20205;-79
2023/09/13 05:04:49;;;;;;;22.30;8.30;;;;;;;-143.21;61.75;72266.53;5069567;28;20313;-79
2023/09/13 05:07:16;;;;;;;27.70;8.70;;;;;;;-143.21;61.59;72256.59;5070323;28;20205;-80
2023/09/13 05:09:43;;;;;;;33.63;8.27;;;;;;;-143.21;61.53;72258.59;5069956;28;20197;-80
2023/09/13 05:12:10;;;;;;;28.83;8.53;;;;;;;-143.21;61.70;72256.59;5069550;28;20202;-80
2023/09/13 05:14:42;;;;;;;29.90;8.40;;;;;;;-143.21;61.46;72258.59;5070198;28;20217;-81
2023/09/13 05:17:09;;;;;;;30.47;9.00;;;;;;;-143.21;61.62;72252.63;5069750;28;20305;-81
2023/09/13 05:19:36;;;;;;;24.43;7.63;;;;;;;-143.21;61.32;72244.72;5069911;28;20648;-81
2023/09/13 05:22:02;;;;;;;35.53;9.03;;;;;;;-143.21;61.11;72248.66;5069556;28;20747;-80
2023/09/13 05:24:29;;;;;;;17.33;8.43;;;;;;;-143.21;60.73;72236.78;5069949;28;20213;-81
2023/09/13 05:26:57;;;;;;;16.80;8.17;;;;;;;-143.21;60.46;72236.78;5069208;28;20201;-80
2023/09/13 05:29:23;;;;;;;22.47;8.77;;;;;;;-143.21;60.55;72224.88;5070049;28;20205;-79
2023/09/13 05:31:52;;;;;;;18.87;8.23;;;;;;;-143.21;60.36;72205.03;5069214;28;20209;-79
2023/09/13 05:34:18;;;;;;;22.93;8.50;;;;;;;-143.21;59.21;72173.31;5069771;28;20225;-81
2023/09/13 05:36:45;;;;;;;23.70;8.87;;;;;;;-143.21;59.15;72173.31;5069664;28;20201;-81
2023/09/13 05:39:12;;;;;;;33.43;9.30;;;;;;;-143.21;59.35;72181.25;5066110;28;20198;-78
2023/09/13 05:41:39;;;;;;;19.00;8.63;;;;;;;-143.21;59.72;72173.31;5069340;28;20205;-79
2023/09/13 05:44:10;;;;;;;18.83;9.17;;;;;;;-143.21;59.07;72171.34;5068828;28;20205;-79
2023/09/13 05:46:36;;;;;;;20.73;9.70;;;;;;;-143.21;59.17;72183.22;5069561;28;20202;-82
2023/09/13 05:49:05;;;;;;;22.80;9.50;;;;;;;-143.21;59.22;72173.31;5070609;28;20205;-80
2023/09/13 05:51:32;;;;;;;22.53;9.07;;;;;;;-143.21;58.99;72163.41;5068282;28;20259;-80
2023/09/13 05:53:59;;;;;;;25.37;9.93;;;;;;;-143.21;59.16;72169.34;5069273;28;20225;-81
2023/09/13 05:56:26;;;;;;;32.07;10.37;;;;;;;-143.21;58.61;72155.47;5069508;28;20216;-81
2023/09/13 05:58:53;;;;;;;23.33;9.90;;;;;;;-143.21;58.32;72141.59;5069217;28;20201;-80
2023/09/13 06:01:19;;;;;;;24.90;9.50;;;;;;;-143.21;58.14;72143.56;5069402;28;20198;-80
2023/09/13 06:03:46;;;;;;;23.63;9.60;;;;;;;-143.21;57.84;72115.81;5069418;28;20274;-80
2023/09/13 06:06:14;;;;;;;21.95;9.50;;;;;;;-143.21;56.84;72090.03;5065715;28;20236;-79
2023/09/13 06:08:41;;;;;;;22.20;10.10;;;;;;;-143.21;56.28;72095.97;5065990;28;20204;-80
2023/09/13 06:11:08;;;;;;;20.93;9.23;;;;;;;-143.21;56.39;72095.97;5068703;28;20288;-81
2023/09/13 06:13:35;;;;;;;18.67;9.57;;;;;;;-143.21;56.20;72095.97;5068955;28;20201;-83
2023/09/13 06:16:02;;;;;;;18.52;8.48;;;;;;;-143.21;56.63;72099.94;5069096;28;20236;-81
2023/09/13 06:18:29;;;;;;;21.42;9.30;;;;;;;-143.21;56.84;72097.97;5069742;28;20212;-83
2023/09/13 06:20:56;;;;;;;16.67;8.50;;;;;;;-143.21;57.08;72095.97;5069486;28;20204;-82
2023/09/13 06:23:40;;;;;;;17.30;8.75;;;;;;;-143.21;56.48;72088.03;5069176;28;20208;-82
2023/09/13 06:26:07;;;;;;;18.27;8.60;;;;;;;-143.21;56.24;72068.22;5069490;28;20209;-81
2023/09/13 06:28:34;;;;;;;17.13;10.00;;;;;;;-143.21;55.57;72052.34;5069768;28;20232;-82
2023/09/13 06:31:01;;;;;;;15.02;10.05;;;;;;;-143.21;55.63;72064.25;5069290;28;20237;-82
2023/09/13 06:33:29;;;;;;;18.92;9.52;;;;;;;-143.21;55.77;72048.38;5069302;28;20211;-80
2023/09/13 06:35:56;;;;;;;16.88;10.65;;;;;;;-143.21;54.57;72014.69;5069530;28;20232;-82
2023/09/13 06:38:23;;;;;;;24.67;10.57;;;;;;;-143.21;54.36;72010.72;5068970;28;20193;-82
2023/09/13 06:40:52;;;;;;;22.98;10.57;;;;;;;-143.21;54.83;72012.69;5068889;28;20233;-80
2023/09/13 06:43:19;;;;;;;23.52;11.18;;;;;;;-143.21;55.09;72014.69;5068789;28;20220;-79
2023/09/13 06:45:47;;;;;;;26.08;10.70;;;;;;;-143.21;55.38;72012.69;5068333;28;20197;-79
2023/09/13 06:48:14;;;;;;;27.30;11.57;;;;;;;-143.21;55.49;72010.72;5065733;28;20639;-79
2023/09/13 06:50:41;;;;;;;26.20;11.60;;;;;;;-143.21;55.63;72002.78;5065002;28;20233;-80
2023/09/13 06:53:08;;;;;;;18.83;10.70;;;;;;;-143.21;54.92;71986.91;5067679;28;20205;-80
2023/09/13 06:55:35;;;;;;;23.00;11.43;;;;;;;-143.21;55.30;71986.91;5068422;28;20225;-79
2023/09/13 06:58:05;;;;;;;23.23;11.40;;;;;;;-143.21;55.22;71982.94;5070207;28;20288;-80
2023/09/13 07:00:32;;;;;;;25.98;11.15;;;;;;;-143.21;54.70;71980.97;5071686;28;20243;-79
2023/09/13 07:02:59;;;;;;;27.42;10.52;;;;;;;-143.21;53.83;71965.09;5072635;28;20205;-79
2023/09/13 07:05:27;;;;;;;22.67;10.95;;;;;;;-143.21;54.04;71955.19;5071336;28;20233;-79
2023/09/13 07:07:53;;;;;;;22.83;10.60;;;;;;;-143.21;53.80;71953.19;5070625;28;20653;-79
2023/09/13 07:10:20;;;;;;;23.95;11.05;;;;;;;-143.21;53.35;71939.31;5071778;28;20542;-82
2023/09/13 07:12:47;;;;;;;23.98;11.43;;;;;;;-143.21;52.94;71933.38;5071036;28;20197;-78
2023/09/13 07:15:17;;;;;;;23.08;10.93;;;;;;;-143.21;52.75;71923.47;5071867;28;20229;-79
2023/09/13 07:17:43;;;;;;;16.77;9.50;;;;;;;-143.21;52.21;71921.47;5069042;28;20200;-79
2023/09/13 07:20:12;;;;;;;19.45;10.32;;;;;;;-143.21;51.73;71909.56;5072309;28;20250;-80
2023/09/13 07:22:38;;;;;;;23.60;9.30;;;;;;;-143.21;51.53;71903.63;5071902;28;20263;-81
2023/09/13 07:25:07;;;;;;;19.27;8.55;;;;;;;-143.21;51.86;71901.66;5071897;28;21131;-80
2023/09/13 07:27:34;;;;;;;21.02;9.15;;;;;;;-143.21;51.46;71883.81;5071603;28;20961;-80
2023/09/13 07:30:02;;;;;;;20.55;9.35;;;;;;;-143.21;51.57;71877.84;5071637;28;20220;-81
2023/09/13 07:32:32;;;;;;;23.90;9.90;;;;;;;-143.21;51.59;71865.97;5071446;28;20202;-79
2023/09/13 07:35:02;;;;;;;26.70;9.02;;;;;;;-143.21;51.08;71854.06;5070891;28;20225;-79
2023/09/13 07:37:33;;;;;;;16.42;8.00;;;;;;;-143.21;50.25;71838.19;5070389;28;20201;-82
2023/09/13 07:40:00;;;;;;;21.60;8.25;;;;;;;-143.21;49.55;71828.28;5070255;28;20778;-81
2023/09/13 07:42:26;;;;;;;26.00;8.95;;;;;;;-143.21;49.10;71814.41;5070494;28;20223;-80
2023/09/13 07:44:54;;;;;;;18.88;8.35;;;;;;;-143.21;49.07;71804.47;5071050;28;20224;-81
2023/09/13 07:47:20;;;;;;;16.90;8.55;;;;;;;-143.21;48.60;71792.59;5070875;28;20206;-80
2023/09/13 07:49:49;;;;;;;16.17;8.05;;;;;;;-143.21;48.14;71780.69;5070249;28;20194;-80
2023/09/13 07:52:15;;;;;;;13.27;7.55;;;;;;;-143.21;47.92;71774.75;5070477;28;20205;-80
2023/09/13 07:54:48;;;;;;;17.30;7.57;;;;;;;-143.21;48.01;71780.69;5070989;28;20216;-80
2023/09/13 07:57:15;;;;;;;12.70;6.78;;;;;;;-143.21;47.89;71764.81;5068864;28;20679;-81
2023/09/13 07:59:42;;;;;;;20.30;7.18;;;;;;;-143.21;48.00;71758.88;5072194;28;20209;-78
2023/09/13 08:02:10;;;;;;;11.85;7.03;;;;;;;-143.21;47.42;71731.13;5056512;28;20189;-78
2023/09/13 08:04:37;;;;;;;16.63;7.85;;;;;;;-143.21;47.12;71707.31;5066098;28;20205;-79
2023/09/13 08:07:05;;;;;;;13.05;7.50;;;;;;;-143.21;46.62;71691.47;5069233;28;20235;-80
2023/09/13 08:09:34;;;;;;;19.25;8.18;;;;;;;-143.21;46.24;71679.56;5068764;28;20213;-79
2023/09/13 08:12:01;;;;;;;19.55;7.70;;;;;;;-143.21;46.19;71677.59;5069805;28;20224;-79
2023/09/13 08:14:28;;;;;;;19.65;7.63;;;;;;;-143.21;45.53;71663.72;5070391;28;20288;-80
2023/09/13 08:16:55;;;;;;;13.15;6.85;;;;;;;-143.21;45.36;71653.78;5070097;28;20292;-81
2023/09/13 08:19:21;;;;;;;12.27;7.05;;;;;;;-143.21;45.09;71653.78;5070139;28;20212;-80
2023/09/13 08:21:48;;;;;;;15.73;6.95;;;;;;;-143.21;44.97;71647.84;5070524;28;20194;-81
2023/09/13 08:24:16;;;;;;;17.50;7.20;;;;;;;-143.21;45.00;71635.94;5070231;28;20204;-80
2023/09/13 08:26:43;;;;;;;15.52;7.25;;;;;;;-143.21;44.52;71624.06;5071103;28;20204;-80
2023/09/13 08:29:10;;;;;;;12.90;6.45;;;;;;;-143.21;44.45;71612.16;5069974;28;20267;-80
2023/09/13 08:31:37;;;;;;;17.52;7.90;;;;;;;-143.21;44.48;71602.25;5070053;28;20656;-81
2023/09/13 08:34:04;;;;;;;13.50;7.43;;;;;;;-143.21;44.24;71576.47;5069628;28;20283;-81
2023/09/13 08:36:31;;;;;;;15.90;7.15;;;;;;;-143.21;43.93;71560.59;5069730;28;20225;-81
2023/09/13 08:38:58;;;;;;;15.20;6.40;;;;;;;-143.21;43.49;71534.81;5069886;28;20197;-80
2023/09/13 08:41:26;;;;;;;17.65;6.93;;;;;;;-143.21;42.78;71499.13;5070020;28;20201;-79
2023/09/13 08:43:56;;;;;;;16.17;6.60;;;;;;;-143.21;42.57;71475.34;5069578;28;20224;-80
2023/09/13 08:46:28;;;;;;;18.75;7.20;;;;;;;-143.21;42.25;71455.53;5069626;28;20201;-79
2023/09/13 08:48:57;;;;;;;16.80;6.35;;;;;;;-143.21;41.69;71443.63;5069155;28;20225;-79
2023/09/13 08:51:27;;;;;;;19.20;5.82;;;;;;;-143.21;41.28;71429.75;5069406;28;20266;-80
2023/09/13 08:53:54;;;;;;;13.38;6.00;;;;;;;-143.21;40.88;71417.84;5069004;28;20635;-80
2023/09/13 08:56:22;;;;;;;11.13;5.90;;;;;;;-143.21;40.50;71405.94;5057534;28;20736;-78
2023/09/13 08:58:52;;;;;;;11.27;6.40;;;;;;;-143.21;40.44;71386.13;5067157;28;20201;-80
2023/09/13 09:01:20;;;;;;;12.30;6.15;;;;;;;-143.21;40.04;71374.22;5068758;28;20702;-81
2023/09/13 09:03:48;;;;;;;11.65;6.00;;;;;;;-143.21;39.97;71364.31;5069077;28;20278;-80
2023/09/13 09:06:17;;;;;;;10.98;5.88;;;;;;;-143.21;40.10;71346.47;5067398;28;20232;-80
2023/09/13 09:08:46;;;;;;;12.98;6.45;;;;;;;-143.21;40.25;71326.66;5068184;28;20201;-80
2023/09/13 09:11:13;;;;;;;24.13;6.20;;;;;;;-143.21;39.85;71308.81;5069040;28;20194;-80
2023/09/13 09:13:46;;;;;;;13.88;6.38;;;;;;;-143.21;39.54;71279.06;5069402;28;20689;-80
2023/09/13 09:16:17;;;;;;;15.88;6.22;;;;;;;-143.21;38.75;71249.34;5069181;28;20296;-80
2023/09/13 09:18:45;;;;;;;14.82;5.70;;;;;;;-143.21;37.70;71223.56;5066389;28;20208;-79
2023/09/13 09:21:13;;;;;;;21.30;5.65;;;;;;;-143.21;36.63;71195.81;5065819;28;20193;-79
2023/09/13 09:23:41;;;;;;;12.93;5.63;;;;;;;-143.21;36.88;71177.97;5069028;28;20209;-79
2023/09/13 09:26:08;;;;;;;17.35;5.88;;;;;;;-143.21;36.86;71162.09;5068847;28;20201;-81
2023/09/13 09:28:35;;;;;;;13.05;5.90;;;;;;;-143.21;36.76;71130.38;5068739;28;20589;-80
2023/09/13 09:31:02;;;;;;;8.88;5.32;;;;;;;-143.21;36.27;71102.63;5068978;28;20225;-79
2023/09/13 09:33:32;;;;;;;10.70;5.05;;;;;;;-143.21;36.13;71078.84;5068627;28;20233;-80
2023/09/13 09:36:00;;;;;;;7.70;5.30;;;;;;;-143.21;36.07;71039.19;5068861;28;20217;-80
2023/09/13 09:38:30;;;;;;;11.85;5.65;;;;;;;-143.21;35.69;71015.41;5068381;28;20205;-80
2023/09/13 09:40:58;;;;;;;14.68;5.72;;;;;;;-143.21;34.90;70987.66;5068846;28;20193;-80
2023/09/13 09:43:25;;;;;;;16.48;5.32;;;;;;;-143.21;34.40;70959.91;5068628;28;20224;-80
2023/09/13 09:45:52;;;;;;;15.73;5.15;;;;;;;-143.21;34.26;70926.19;5068664;28;20206;-80
2023/09/13 09:48:21;;;;;;;8.18;4.88;;;;;;;-143.21;33.72;70898.44;5068524;28;20287;-80
2023/09/13 09:50:53;;;;;;;14.20;5.95;;;;;;;-143.21;33.57;70878.63;5068147;28;20204;-79
2023/09/13 09:53:21;;;;;;;14.77;6.00;;;;;;;-143.21;33.39;70848.88;5068304;28;20270;-80
2023/09/13 09:55:48;;;;;;;11.90;5.78;;;;;;;-143.21;32.85;70831.03;5068598;28;20225;-80
2023/09/13 09:58:19;;;;;;;16.20;5.80;;;;;;;-143.21;33.07;70799.31;5069644;28;20208;-83
2023/09/13 10:00:50;;;;;;;10.52;4.85;;;;;;;-143.21;32.51;70763.66;5069756;28;20552;-80
2023/09/13 10:03:18;;;;;;;17.85;5.03;;;;;;;-143.21;32.43;70733.91;5069784;28;20295;-85
2023/09/13 10:05:54;;;;;;;11.90;5.20;;;;;;;-143.21;31.93;70708.16;5069188;28;20658;-81
2023/09/13 10:08:37;;;;;;;17.10;5.35;;;;;;;-143.21;32.12;70678.41;5068959;28;20691;-81
2023/09/13 10:11:04;;;;;;;13.50;5.53;;;;;;;-143.21;31.71;70652.66;5069810;28;20201;-81
2023/09/13 10:13:34;;;;;;;12.18;5.10;;;;;;;-143.21;31.24;70624.88;5069422;28;20228;-81
2023/09/13 10:16:02;;;;;;;15.45;5.18;;;;;;;-143.21;30.46;70605.06;5069740;28;20738;-81
2023/09/13 10:18:32;;;;;;;9.23;4.93;;;;;;;-143.21;30.64;70605.06;5066128;28;20196;-81
2023/09/13 10:21:01;;;;;;;8.10;5.18;;;;;;;-143.21;30.56;70585.25;5068935;28;20209;-81
2023/09/13 10:23:38;;;;;;;13.32;5.47;;;;;;;-143.21;31.00;70569.38;5068416;28;20202;-82
2023/09/13 10:26:08;;;;;;;17.25;5.57;;;;;;;-143.21;30.46;70541.63;5069110;28;20215;-81
2023/09/13 10:28:37;;;;;;;12.63;5.07;;;;;;;-143.21;30.23;70509.94;5068574;28;20212;-81
2023/09/13 10:31:09;;;;;;;18.30;4.85;;;;;;;-143.21;29.58;70492.09;5068552;28;20301;-81
2023/09/13 10:33:40;;;;;;;10.27;5.10;;;;;;;-143.21;29.30;70498.03;5071163;28;20205;-82
2023/09/13 10:36:12;;;;;;;6.90;4.50;;;;;;;-143.21;29.37;70484.16;5071101;28;20297;-81
2023/09/13 10:38:46;;;;;;;15.60;5.22;;;;;;;-143.21;29.41;70446.50;5071252;28;20205;-81
2023/09/13 10:41:17;;;;;;;11.38;4.50;;;;;;;-143.21;29.37;70420.72;5069088;28;20228;-80
2023/09/13 10:43:46;;;;;;;13.55;4.90;;;;;;;-143.21;28.97;70398.94;5069977;28;20197;-81
2023/09/13 10:46:16;;;;;;;10.70;4.78;;;;;;;-143.21;29.07;70367.22;5068850;28;20194;-83
2023/09/13 10:48:45;;;;;;;8.93;4.88;;;;;;;-143.21;28.60;70335.50;5070401;28;20200;-81
2023/09/13 10:51:16;;;;;;;12.13;4.85;;;;;;;-143.21;27.73;70313.72;5069703;28;20643;-81
2023/09/13 10:53:45;;;;;;;9.65;4.80;;;;;;;-143.21;27.71;70317.66;5061290;28;20211;-84
2023/09/13 10:56:16;;;;;;;15.18;4.78;;;;;;;-143.21;27.91;70321.63;5070097;28;20255;-83
2023/09/13 10:58:46;;;;;;;11.63;4.95;;;;;;;-143.21;28.16;70323.63;5069053;28;20219;-84
2023/09/13 11:01:14;;;;;;;10.60;5.10;;;;;;;-143.21;28.20;70315.69;5072714;28;20566;-81
2023/09/13 11:03:42;;;;;;;13.93;4.75;;;;;;;-143.21;28.24;70274.06;5072433;28;20692;-81
2023/09/13 11:06:10;;;;;;;15.68;5.47;;;;;;;-143.21;27.78;70238.38;5071753;28;20772;-80
2023/09/13 11:08:42;;;;;;;10.00;5.10;;;;;;;-143.21;27.64;70206.69;5072077;28;20229;-81
2023/09/13 11:11:16;;;;;;;28.80;5.18;;;;;;;-143.21;27.28;70178.94;5072114;28;20201;-80
2023/09/13 11:13:44;;;;;;;8.05;4.60;;;;;;;-143.21;26.94;70145.25;5071873;28;20644;-80